Chesterfield, Illinois
Current Conditions -  °F | °C
As of 4:35 AM on Saturday 25 Oct 2014 (Local Time) from K3LF Reporting Station
Scattered Clouds Scattered Clouds  
Wind Chill: 53°   Ceiling: Unl
Heat Index: 53°   Visibility: 7mi
Dew Point: 51°   Wind: 5mph
Humidity: 91%   Direction: 240°WSW
Pressure: 29.98"   Gusts: NA
Location:  39.26°N, 90.06°W
Report Text: K3LF 250935Z AUTO 24004KT 7SM SCT029 12/10 A2998 RMK AO2 T01180104
Loading
Personal Weather Stations






























Interactive Weather Map
Tropical Storm Tracking
New forecast layout! Learn more

10-Day Weather Forecast

Advertisements
Track Severe Weather on mobile